createdAt,value
2023-04-30T00:01:52.747Z,59.48
2023-04-30T00:06:55.868Z,61.24
2023-04-30T00:11:58.980Z,67.13
2023-04-30T00:17:02.481Z,63.23
2023-04-30T00:22:06.332Z,56.62
2023-04-30T00:27:09.310Z,57.23
2023-04-30T00:32:12.560Z,58.51
2023-04-30T00:37:15.758Z,60.12
2023-04-30T00:42:18.758Z,66.26
2023-04-30T00:47:22.082Z,62.72
2023-04-30T00:52:25.532Z,55.80
2023-04-30T00:57:29.430Z,56.13
2023-04-30T01:02:32.658Z,58.06
2023-04-30T01:07:38.876Z,60.09
2023-04-30T01:13:04.396Z,60.87
2023-04-30T01:18:12.813Z,68.36
2023-04-30T01:23:37.183Z,63.09
2023-04-30T01:28:42.851Z,56.33
2023-04-30T01:33:46.046Z,56.98
2023-04-30T01:39:09.896Z,58.35
2023-04-30T01:44:41.308Z,60.29
2023-04-30T01:50:17.753Z,67.04
2023-04-30T01:55:24.858Z,61.99
2023-04-30T02:00:30.720Z,55.55
2023-04-30T02:05:34.537Z,56.32
2023-04-30T02:10:37.567Z,58.28
2023-04-30T02:15:40.646Z,60.62
2023-04-30T02:20:44.047Z,66.69
2023-04-30T02:25:48.040Z,62.46
2023-04-30T02:30:51.079Z,56.17
2023-04-30T02:35:55.355Z,57.42
2023-04-30T02:40:58.432Z,58.82
2023-04-30T02:46:01.772Z,61.08
2023-04-30T02:51:05.341Z,67.18
2023-04-30T02:56:08.452Z,62.38
2023-04-30T03:01:11.493Z,55.40
2023-04-30T03:06:14.809Z,56.39
2023-04-30T03:11:17.919Z,58.35
2023-04-30T03:16:21.997Z,60.10
2023-04-30T03:21:25.108Z,66.08
2023-04-30T03:26:29.028Z,62.13
2023-04-30T03:31:32.552Z,55.51
2023-04-30T03:36:36.091Z,56.23
2023-04-30T03:41:39.096Z,58.18
2023-04-30T03:46:44.615Z,59.62
2023-04-30T03:51:47.985Z,61.33
2023-04-30T03:56:51.429Z,67.56
2023-04-30T04:07:24.661Z,55.85
2023-04-30T04:12:27.658Z,57.83
2023-04-30T04:17:30.717Z,59.59
2023-04-30T04:22:35.782Z,65.76
2023-04-30T04:27:38.769Z,61.80
2023-04-30T04:32:48.518Z,54.76
2023-04-30T04:37:51.669Z,55.83
2023-04-30T04:42:55.898Z,58.19
2023-04-30T04:47:59.181Z,59.79
2023-04-30T04:53:03.672Z,60.76
2023-04-30T04:58:06.854Z,65.80
2023-04-30T05:03:10.490Z,59.82
2023-04-30T05:08:13.991Z,54.80
2023-04-30T05:13:17.794Z,56.52
2023-04-30T05:18:21.251Z,58.42
2023-04-30T05:23:24.328Z,60.00
2023-04-30T05:28:27.456Z,60.55
2023-04-30T05:33:30.652Z,61.43
2023-04-30T05:38:33.687Z,65.65
2023-04-30T05:43:36.652Z,60.54
2023-04-30T05:48:40.122Z,52.89
2023-04-30T05:53:43.463Z,54.01
2023-04-30T05:58:46.535Z,55.18
2023-04-30T06:03:49.565Z,57.05
2023-04-30T06:08:52.640Z,57.92
2023-04-30T06:13:56.129Z,58.85
2023-04-30T06:18:59.228Z,59.16
2023-04-30T06:24:02.401Z,59.57
2023-04-30T06:29:05.409Z,59.81
2023-04-30T06:34:08.800Z,60.56
2023-04-30T06:39:15.274Z,61.19
2023-04-30T06:44:19.206Z,61.07
2023-04-30T06:49:23.173Z,61.45
2023-04-30T06:54:27.864Z,66.86
2023-04-30T06:59:31.433Z,60.36
2023-04-30T07:04:34.489Z,51.59
2023-04-30T07:09:37.877Z,52.43
2023-04-30T07:14:41.044Z,53.55
2023-04-30T07:19:44.223Z,54.80
2023-04-30T07:24:47.321Z,56.02
2023-04-30T07:29:51.648Z,56.69
2023-04-30T07:34:54.682Z,57.54
2023-04-30T07:39:57.791Z,58.06
2023-04-30T07:45:01.197Z,58.12
2023-04-30T07:50:04.913Z,58.48
2023-04-30T07:55:08.574Z,58.57
2023-04-30T08:00:12.577Z,58.61
2023-04-30T08:05:15.629Z,58.86
2023-04-30T08:10:18.802Z,58.03
2023-04-30T08:15:24.223Z,57.28
2023-04-30T08:20:27.533Z,57.22
2023-04-30T08:25:31.852Z,57.50
2023-04-30T08:30:34.984Z,56.34
2023-04-30T08:35:38.074Z,56.36
2023-04-30T08:45:51.193Z,55.15
2023-04-30T08:50:55.411Z,55.52
2023-04-30T08:55:59.810Z,55.57
2023-04-30T09:01:07.563Z,56.51
2023-04-30T09:06:15.226Z,53.75
2023-04-30T09:11:26.793Z,50.61
2023-04-30T09:16:57.946Z,51.80
2023-04-30T09:22:21.762Z,53.07
2023-04-30T09:27:25.092Z,51.86
2023-04-30T09:32:28.356Z,51.08
2023-04-30T09:37:40.295Z,51.82
2023-04-30T09:43:00.256Z,51.77
2023-04-30T09:48:16.419Z,49.66
2023-04-30T09:53:21.309Z,48.49
2023-04-30T09:58:29.962Z,47.19
2023-04-30T10:03:33.934Z,48.63
2023-04-30T10:08:44.254Z,47.81
2023-04-30T10:13:57.980Z,48.44
2023-04-30T10:19:07.734Z,48.48
2023-04-30T10:24:13.167Z,45.98
2023-04-30T10:29:17.181Z,46.05
2023-04-30T10:34:32.133Z,45.69
2023-04-30T10:39:37.748Z,42.26
2023-04-30T10:44:41.015Z,43.03
2023-04-30T10:49:49.407Z,43.78
2023-04-30T10:54:52.394Z,44.33
2023-04-30T11:00:07.997Z,43.35
2023-04-30T11:05:12.268Z,41.86
2023-04-30T11:10:16.237Z,42.28
2023-04-30T11:15:24.808Z,41.07
2023-04-30T11:20:28.317Z,41.08
2023-04-30T11:25:48.656Z,41.49
2023-04-30T11:30:52.792Z,37.86
2023-04-30T11:35:58.001Z,37.81
2023-04-30T11:41:02.134Z,38.52
2023-04-30T11:46:10.623Z,39.88
2023-04-30T11:51:22.024Z,40.79
2023-04-30T11:56:25.814Z,41.28
2023-04-30T12:01:29.311Z,40.77
2023-04-30T12:06:33.178Z,40.80
2023-04-30T12:11:36.488Z,40.03
2023-04-30T12:16:45.553Z,39.13
2023-04-30T12:21:49.913Z,38.69
2023-04-30T12:26:54.167Z,37.64
2023-04-30T12:31:58.295Z,35.59
2023-04-30T12:37:02.334Z,36.13
2023-04-30T12:42:05.624Z,35.80
2023-04-30T12:47:10.154Z,34.98
2023-04-30T12:52:14.278Z,35.92
2023-04-30T12:57:17.572Z,35.91
2023-04-30T13:02:24.755Z,35.59
2023-04-30T13:07:38.330Z,35.10
2023-04-30T13:12:48.893Z,35.27
2023-04-30T13:17:54.591Z,34.99
2023-04-30T13:22:57.961Z,35.38
2023-04-30T13:28:01.013Z,33.20
2023-04-30T13:33:04.203Z,34.38
2023-04-30T13:38:07.357Z,33.89
2023-04-30T13:43:10.573Z,34.54
2023-04-30T13:48:13.953Z,33.35
2023-04-30T13:53:17.158Z,31.60
2023-04-30T13:58:20.787Z,32.80
2023-04-30T14:03:24.031Z,32.38
2023-04-30T14:08:27.136Z,32.70
2023-04-30T14:13:30.665Z,32.64
2023-04-30T14:18:33.969Z,31.78
2023-04-30T16:25:36.270Z,25.27
2023-04-30T16:30:40.429Z,25.54
2023-04-30T16:35:44.000Z,26.19
2023-04-30T16:40:48.121Z,26.90
2023-04-30T16:45:52.077Z,27.34
2023-04-30T16:50:55.396Z,27.66
2023-04-30T16:55:58.588Z,28.23
2023-04-30T17:01:02.239Z,28.87
2023-04-30T17:06:06.168Z,29.50
2023-04-30T17:11:09.412Z,29.92
2023-04-30T17:16:14.620Z,30.00
2023-04-30T17:25:32.200Z,29.66
2023-04-30T17:30:53.142Z,30.07
2023-04-30T17:35:56.422Z,30.20
2023-04-30T17:40:59.954Z,30.08
2023-04-30T17:46:03.654Z,31.13
2023-04-30T17:51:08.074Z,31.92
2023-04-30T17:56:12.368Z,32.96
2023-04-30T18:01:15.494Z,33.30
2023-04-30T18:06:18.540Z,31.77
2023-04-30T18:11:21.904Z,31.75
2023-04-30T18:16:25.026Z,32.34
2023-04-30T18:21:28.222Z,32.53
2023-04-30T18:26:31.796Z,32.96
2023-04-30T18:31:36.878Z,32.77
2023-04-30T18:36:43.106Z,32.99
2023-04-30T18:41:46.312Z,33.57
2023-04-30T18:46:49.305Z,34.43
2023-04-30T18:51:54.865Z,34.05
2023-04-30T18:56:58.564Z,34.39
2023-04-30T19:02:01.637Z,34.29
2023-04-30T19:07:04.971Z,34.19
2023-04-30T19:12:10.378Z,34.12
2023-04-30T19:17:21.485Z,34.70
2023-04-30T19:22:24.897Z,34.84
2023-04-30T19:27:28.199Z,34.83
2023-04-30T19:32:31.589Z,35.06
2023-04-30T19:37:34.789Z,35.83
2023-04-30T19:42:39.766Z,35.05
2023-04-30T19:47:42.740Z,35.09
2023-04-30T19:52:45.776Z,35.41
2023-04-30T19:57:48.764Z,35.62
2023-04-30T20:02:52.177Z,35.66
2023-04-30T20:07:55.398Z,35.89
2023-04-30T20:12:58.530Z,35.94
2023-04-30T20:18:02.008Z,36.22
2023-04-30T20:23:16.324Z,36.41
2023-04-30T20:28:19.802Z,36.80
2023-04-30T20:33:23.181Z,37.03
2023-04-30T20:38:26.423Z,36.90
2023-04-30T20:43:29.649Z,36.88
2023-04-30T20:48:33.570Z,36.77
2023-04-30T20:53:36.713Z,37.01
2023-04-30T20:58:39.778Z,37.24
2023-04-30T21:03:42.948Z,37.69
2023-04-30T21:08:46.525Z,37.59
2023-04-30T21:13:51.381Z,37.71
2023-04-30T21:18:54.618Z,38.63
2023-04-30T21:24:01.113Z,38.93
2023-04-30T21:29:04.428Z,40.30
2023-04-30T21:34:07.560Z,39.49
2023-04-30T21:39:10.520Z,39.91
2023-04-30T21:44:13.630Z,40.21
2023-04-30T21:49:17.011Z,40.67
2023-04-30T21:54:20.079Z,40.96
2023-04-30T21:59:23.049Z,41.28
2023-04-30T22:04:26.721Z,41.58
2023-04-30T22:09:31.903Z,41.83
2023-04-30T22:14:35.318Z,42.18
2023-04-30T22:20:01.305Z,42.81
2023-04-30T22:25:04.892Z,42.90
2023-04-30T22:30:09.998Z,43.51
2023-04-30T22:35:16.334Z,43.50
2023-04-30T22:45:20.808Z,44.34
2023-04-30T22:50:24.194Z,44.48
2023-04-30T22:55:28.119Z,44.41
2023-04-30T23:00:31.779Z,44.70
2023-04-30T23:05:35.095Z,44.83
2023-04-30T23:10:38.182Z,45.39
2023-04-30T23:15:43.341Z,45.59
2023-04-30T23:20:47.591Z,45.58
2023-04-30T23:25:51.350Z,45.69
2023-04-30T23:30:55.323Z,45.90
2023-04-30T23:35:58.450Z,46.53
2023-04-30T23:41:03.416Z,46.82
2023-04-30T23:46:06.632Z,46.91
2023-04-30T23:51:10.017Z,47.33
2023-04-30T23:56:13.332Z,47.68
